sensor_id;sensor_type;location;lat;lon;timestamp;temperature;humidity
12413;DHT22;13877;18.896;-99.222;2023-06-04T00:02:17;34.30;54.70
12413;DHT22;13877;18.896;-99.222;2023-06-04T00:04:44;34.10;55.40
12413;DHT22;13877;18.896;-99.222;2023-06-04T00:07:11;33.50;55.90
12413;DHT22;13877;18.896;-99.222;2023-06-04T00:09:38;33.50;57.00
12413;DHT22;13877;18.896;-99.222;2023-06-04T00:12:05;33.30;57.60
12413;DHT22;13877;18.896;-99.222;2023-06-04T00:14:32;33.10;58.20
12413;DHT22;13877;18.896;-99.222;2023-06-04T00:16:59;33.30;58.40
12413;DHT22;13877;18.896;-99.222;2023-06-04T00:19:27;32.80;58.50
12413;DHT22;13877;18.896;-99.222;2023-06-04T00:21:56;32.70;58.90
12413;DHT22;13877;18.896;-99.222;2023-06-04T00:24:22;32.50;58.90
12413;DHT22;13877;18.896;-99.222;2023-06-04T00:26:53;32.70;58.90
12413;DHT22;13877;18.896;-99.222;2023-06-04T00:29:20;32.70;59.10
12413;DHT22;13877;18.896;-99.222;2023-06-04T00:31:47;32.70;58.40
12413;DHT22;13877;18.896;-99.222;2023-06-04T00:34:14;32.80;58.10
12413;DHT22;13877;18.896;-99.222;2023-06-04T00:36:41;32.90;57.90
12413;DHT22;13877;18.896;-99.222;2023-06-04T00:39:08;32.80;58.00
12413;DHT22;13877;18.896;-99.222;2023-06-04T00:41:35;32.70;58.20
12413;DHT22;13877;18.896;-99.222;2023-06-04T00:44:02;32.40;58.20
12413;DHT22;13877;18.896;-99.222;2023-06-04T00:46:33;32.10;58.40
12413;DHT22;13877;18.896;-99.222;2023-06-04T00:49:02;31.90;59.50
12413;DHT22;13877;18.896;-99.222;2023-06-04T00:51:30;31.60;59.60
12413;DHT22;13877;18.896;-99.222;2023-06-04T00:53:58;31.40;61.30
12413;DHT22;13877;18.896;-99.222;2023-06-04T00:56:25;31.30;60.00
12413;DHT22;13877;18.896;-99.222;2023-06-04T00:58:52;31.10;59.90
12413;DHT22;13877;18.896;-99.222;2023-06-04T01:01:37;31.00;61.20
12413;DHT22;13877;18.896;-99.222;2023-06-04T01:04:12;30.90;60.30
12413;DHT22;13877;18.896;-99.222;2023-06-04T01:06:44;30.70;62.60
12413;DHT22;13877;18.896;-99.222;2023-06-04T01:09:13;30.50;63.70
12413;DHT22;13877;18.896;-99.222;2023-06-04T01:11:40;30.10;65.00
12413;DHT22;13877;18.896;-99.222;2023-06-04T01:14:09;29.90;65.40
12413;DHT22;13877;18.896;-99.222;2023-06-04T01:16:44;29.70;66.30
12413;DHT22;13877;18.896;-99.222;2023-06-04T01:25:27;29.40;65.80
12413;DHT22;13877;18.896;-99.222;2023-06-04T01:27:59;29.20;67.00
12413;DHT22;13877;18.896;-99.222;2023-06-04T01:30:30;28.90;68.40
12413;DHT22;13877;18.896;-99.222;2023-06-04T01:32:59;28.90;69.00
12413;DHT22;13877;18.896;-99.222;2023-06-04T01:35:27;28.90;70.70
12413;DHT22;13877;18.896;-99.222;2023-06-04T01:37:55;29.00;68.10
12413;DHT22;13877;18.896;-99.222;2023-06-04T01:40:23;29.20;67.60
12413;DHT22;13877;18.896;-99.222;2023-06-04T01:42:50;29.20;67.30
12413;DHT22;13877;18.896;-99.222;2023-06-04T01:45:21;29.30;67.60
12413;DHT22;13877;18.896;-99.222;2023-06-04T01:47:50;29.30;68.00
12413;DHT22;13877;18.896;-99.222;2023-06-04T01:50:19;29.40;68.10
12413;DHT22;13877;18.896;-99.222;2023-06-04T01:52:46;29.30;69.20
12413;DHT22;13877;18.896;-99.222;2023-06-04T01:55:15;29.20;70.10
12413;DHT22;13877;18.896;-99.222;2023-06-04T01:57:46;29.10;70.50
12413;DHT22;13877;18.896;-99.222;2023-06-04T02:00:17;29.00;71.20
12413;DHT22;13877;18.896;-99.222;2023-06-04T02:02:45;28.90;71.60
12413;DHT22;13877;18.896;-99.222;2023-06-04T02:05:15;28.80;72.40
12413;DHT22;13877;18.896;-99.222;2023-06-04T02:07:43;28.70;72.80
12413;DHT22;13877;18.896;-99.222;2023-06-04T02:10:13;28.60;73.60
12413;DHT22;13877;18.896;-99.222;2023-06-04T02:13:02;28.70;75.00
12413;DHT22;13877;18.896;-99.222;2023-06-04T02:15:33;28.60;75.40
12413;DHT22;13877;18.896;-99.222;2023-06-04T02:18:12;28.40;76.40
12413;DHT22;13877;18.896;-99.222;2023-06-04T02:20:45;28.30;77.40
12413;DHT22;13877;18.896;-99.222;2023-06-04T02:23:15;28.00;78.90
12413;DHT22;13877;18.896;-99.222;2023-06-04T02:25:42;27.70;80.30
12413;DHT22;13877;18.896;-99.222;2023-06-04T02:28:12;27.60;80.40
12413;DHT22;13877;18.896;-99.222;2023-06-04T02:30:39;27.60;80.80
12413;DHT22;13877;18.896;-99.222;2023-06-04T02:33:06;27.60;80.90
12413;DHT22;13877;18.896;-99.222;2023-06-04T02:35:36;27.50;80.60
12413;DHT22;13877;18.896;-99.222;2023-06-04T02:38:04;27.50;80.60
12413;DHT22;13877;18.896;-99.222;2023-06-04T02:40:31;27.80;80.90
12413;DHT22;13877;18.896;-99.222;2023-06-04T02:42:58;27.90;79.30
12413;DHT22;13877;18.896;-99.222;2023-06-04T02:45:25;27.80;75.40
12413;DHT22;13877;18.896;-99.222;2023-06-04T02:47:52;27.90;67.10
12413;DHT22;13877;18.896;-99.222;2023-06-04T02:50:19;27.90;64.50
12413;DHT22;13877;18.896;-99.222;2023-06-04T02:52:48;27.90;61.60
12413;DHT22;13877;18.896;-99.222;2023-06-04T02:55:15;27.80;58.30
12413;DHT22;13877;18.896;-99.222;2023-06-04T02:57:43;27.70;58.80
12413;DHT22;13877;18.896;-99.222;2023-06-04T03:00:11;27.80;56.80
12413;DHT22;13877;18.896;-99.222;2023-06-04T03:02:44;27.80;56.90
12413;DHT22;13877;18.896;-99.222;2023-06-04T03:05:13;27.70;57.10
12413;DHT22;13877;18.896;-99.222;2023-06-04T03:07:44;27.50;57.10
12413;DHT22;13877;18.896;-99.222;2023-06-04T03:10:13;27.50;56.90
12413;DHT22;13877;18.896;-99.222;2023-06-04T03:12:40;27.50;56.90
12413;DHT22;13877;18.896;-99.222;2023-06-04T03:15:07;27.50;56.10
12413;DHT22;13877;18.896;-99.222;2023-06-04T03:17:35;27.40;55.70
12413;DHT22;13877;18.896;-99.222;2023-06-04T03:20:04;27.20;55.40
12413;DHT22;13877;18.896;-99.222;2023-06-04T03:22:32;27.20;55.30
12413;DHT22;13877;18.896;-99.222;2023-06-04T03:25:01;27.00;55.50
12413;DHT22;13877;18.896;-99.222;2023-06-04T03:27:31;27.10;54.00
12413;DHT22;13877;18.896;-99.222;2023-06-04T03:29:59;27.20;53.90
12413;DHT22;13877;18.896;-99.222;2023-06-04T03:32:26;27.20;54.10
12413;DHT22;13877;18.896;-99.222;2023-06-04T03:34:54;27.00;54.50
12413;DHT22;13877;18.896;-99.222;2023-06-04T03:37:21;26.70;55.40
12413;DHT22;13877;18.896;-99.222;2023-06-04T03:39:48;26.60;55.70
12413;DHT22;13877;18.896;-99.222;2023-06-04T03:42:17;26.50;55.60
12413;DHT22;13877;18.896;-99.222;2023-06-04T03:44:45;26.20;56.50
12413;DHT22;13877;18.896;-99.222;2023-06-04T03:47:13;26.10;56.00
12413;DHT22;13877;18.896;-99.222;2023-06-04T03:49:41;26.30;55.10
12413;DHT22;13877;18.896;-99.222;2023-06-04T03:52:08;26.00;55.80
12413;DHT22;13877;18.896;-99.222;2023-06-04T03:54:37;25.70;55.70
12413;DHT22;13877;18.896;-99.222;2023-06-04T03:57:04;25.70;56.90
12413;DHT22;13877;18.896;-99.222;2023-06-04T03:59:31;25.70;55.10
12413;DHT22;13877;18.896;-99.222;2023-06-04T04:01:58;25.80;56.50
12413;DHT22;13877;18.896;-99.222;2023-06-04T04:04:27;25.70;55.40
12413;DHT22;13877;18.896;-99.222;2023-06-04T04:06:54;25.60;55.70
12413;DHT22;13877;18.896;-99.222;2023-06-04T04:09:22;25.60;56.00
12413;DHT22;13877;18.896;-99.222;2023-06-04T04:11:49;25.60;56.20
12413;DHT22;13877;18.896;-99.222;2023-06-04T04:14:17;25.50;56.50
12413;DHT22;13877;18.896;-99.222;2023-06-04T04:16:46;25.30;57.30
12413;DHT22;13877;18.896;-99.222;2023-06-04T04:19:13;25.20;55.80
12413;DHT22;13877;18.896;-99.222;2023-06-04T04:21:40;25.20;56.80
12413;DHT22;13877;18.896;-99.222;2023-06-04T04:24:08;25.20;56.30
12413;DHT22;13877;18.896;-99.222;2023-06-04T04:26:37;25.20;56.20
12413;DHT22;13877;18.896;-99.222;2023-06-04T04:29:05;25.20;55.90
12413;DHT22;13877;18.896;-99.222;2023-06-04T04:31:35;25.20;56.40
12413;DHT22;13877;18.896;-99.222;2023-06-04T04:34:02;25.00;56.80
12413;DHT22;13877;18.896;-99.222;2023-06-04T04:36:39;25.00;57.70
12413;DHT22;13877;18.896;-99.222;2023-06-04T04:39:08;24.90;58.00
12413;DHT22;13877;18.896;-99.222;2023-06-04T04:41:36;24.90;58.70
12413;DHT22;13877;18.896;-99.222;2023-06-04T04:44:04;24.80;58.90
12413;DHT22;13877;18.896;-99.222;2023-06-04T04:46:32;24.80;59.40
12413;DHT22;13877;18.896;-99.222;2023-06-04T04:48:59;24.70;59.90
12413;DHT22;13877;18.896;-99.222;2023-06-04T04:51:26;24.60;59.70
12413;DHT22;13877;18.896;-99.222;2023-06-04T04:53:54;24.50;59.80
12413;DHT22;13877;18.896;-99.222;2023-06-04T04:56:24;24.40;60.50
12413;DHT22;13877;18.896;-99.222;2023-06-04T04:58:53;24.20;60.80
12413;DHT22;13877;18.896;-99.222;2023-06-04T05:01:21;24.20;60.40
12413;DHT22;13877;18.896;-99.222;2023-06-04T05:03:49;24.10;60.80
12413;DHT22;13877;18.896;-99.222;2023-06-04T05:06:16;24.10;60.00
12413;DHT22;13877;18.896;-99.222;2023-06-04T05:08:44;24.10;60.50
12413;DHT22;13877;18.896;-99.222;2023-06-04T05:11:13;24.00;60.30
12413;DHT22;13877;18.896;-99.222;2023-06-04T05:13:42;23.90;60.40
12413;DHT22;13877;18.896;-99.222;2023-06-04T05:16:11;23.90;60.80
12413;DHT22;13877;18.896;-99.222;2023-06-04T05:18:41;23.80;61.10
12413;DHT22;13877;18.896;-99.222;2023-06-04T05:21:10;23.70;61.60
12413;DHT22;13877;18.896;-99.222;2023-06-04T05:23:42;23.70;61.60
12413;DHT22;13877;18.896;-99.222;2023-06-04T05:26:11;23.60;61.80
12413;DHT22;13877;18.896;-99.222;2023-06-04T05:28:39;23.50;61.90
12413;DHT22;13877;18.896;-99.222;2023-06-04T05:31:11;23.50;62.30
12413;DHT22;13877;18.896;-99.222;2023-06-04T05:33:40;23.50;62.60
12413;DHT22;13877;18.896;-99.222;2023-06-04T05:36:12;23.40;62.60
12413;DHT22;13877;18.896;-99.222;2023-06-04T05:38:46;23.30;62.90
12413;DHT22;13877;18.896;-99.222;2023-06-04T05:41:15;23.20;63.20
12413;DHT22;13877;18.896;-99.222;2023-06-04T05:43:43;23.10;63.20
12413;DHT22;13877;18.896;-99.222;2023-06-04T05:46:12;23.10;63.30
12413;DHT22;13877;18.896;-99.222;2023-06-04T05:48:40;23.10;63.60
12413;DHT22;13877;18.896;-99.222;2023-06-04T05:51:08;23.10;63.40
12413;DHT22;13877;18.896;-99.222;2023-06-04T05:53:36;23.10;63.60
12413;DHT22;13877;18.896;-99.222;2023-06-04T05:56:05;23.10;63.80
12413;DHT22;13877;18.896;-99.222;2023-06-04T05:58:35;23.00;63.90
12413;DHT22;13877;18.896;-99.222;2023-06-04T06:01:03;23.10;64.10
12413;DHT22;13877;18.896;-99.222;2023-06-04T06:03:30;22.90;63.70
12413;DHT22;13877;18.896;-99.222;2023-06-04T06:05:58;22.90;64.30
12413;DHT22;13877;18.896;-99.222;2023-06-04T06:08:26;22.90;64.60
12413;DHT22;13877;18.896;-99.222;2023-06-04T06:10:54;22.90;64.50
12413;DHT22;13877;18.896;-99.222;2023-06-04T06:13:22;22.80;64.30
12413;DHT22;13877;18.896;-99.222;2023-06-04T06:15:49;22.70;64.40
12413;DHT22;13877;18.896;-99.222;2023-06-04T06:18:16;22.60;64.50
12413;DHT22;13877;18.896;-99.222;2023-06-04T06:20:43;22.70;64.90
12413;DHT22;13877;18.896;-99.222;2023-06-04T06:23:10;22.70;64.60
12413;DHT22;13877;18.896;-99.222;2023-06-04T06:25:41;22.60;65.30
12413;DHT22;13877;18.896;-99.222;2023-06-04T06:28:20;22.50;65.20
12413;DHT22;13877;18.896;-99.222;2023-06-04T06:30:48;22.50;65.60
12413;DHT22;13877;18.896;-99.222;2023-06-04T06:33:15;22.50;64.50
12413;DHT22;13877;18.896;-99.222;2023-06-04T06:35:42;22.60;64.90
12413;DHT22;13877;18.896;-99.222;2023-06-04T06:38:12;22.70;65.20
12413;DHT22;13877;18.896;-99.222;2023-06-04T06:40:41;22.70;64.90
12413;DHT22;13877;18.896;-99.222;2023-06-04T06:43:07;22.70;65.30
12413;DHT22;13877;18.896;-99.222;2023-06-04T06:45:35;22.50;66.60
12413;DHT22;13877;18.896;-99.222;2023-06-04T06:48:02;22.40;67.50
12413;DHT22;13877;18.896;-99.222;2023-06-04T06:50:30;22.40;65.60
12413;DHT22;13877;18.896;-99.222;2023-06-04T06:52:57;22.50;66.60
12413;DHT22;13877;18.896;-99.222;2023-06-04T06:55:23;22.40;66.90
12413;DHT22;13877;18.896;-99.222;2023-06-04T06:57:50;22.30;66.70
12413;DHT22;13877;18.896;-99.222;2023-06-04T07:00:17;22.50;66.10
12413;DHT22;13877;18.896;-99.222;2023-06-04T07:02:44;22.70;64.80
12413;DHT22;13877;18.896;-99.222;2023-06-04T07:05:11;22.50;65.40
12413;DHT22;13877;18.896;-99.222;2023-06-04T07:07:41;22.40;66.30
12413;DHT22;13877;18.896;-99.222;2023-06-04T07:10:09;22.70;65.80
12413;DHT22;13877;18.896;-99.222;2023-06-04T07:12:36;22.80;65.40
12413;DHT22;13877;18.896;-99.222;2023-06-04T07:15:03;22.90;65.30
12413;DHT22;13877;18.896;-99.222;2023-06-04T07:17:31;22.90;64.90
12413;DHT22;13877;18.896;-99.222;2023-06-04T07:19:58;22.90;66.00
12413;DHT22;13877;18.896;-99.222;2023-06-04T07:22:26;22.80;66.10
12413;DHT22;13877;18.896;-99.222;2023-06-04T07:24:53;22.50;66.40
12413;DHT22;13877;18.896;-99.222;2023-06-04T07:27:20;22.40;66.50
12413;DHT22;13877;18.896;-99.222;2023-06-04T07:29:48;22.20;68.20
12413;DHT22;13877;18.896;-99.222;2023-06-04T07:32:15;22.40;67.20
12413;DHT22;13877;18.896;-99.222;2023-06-04T07:34:42;22.40;66.90
12413;DHT22;13877;18.896;-99.222;2023-06-04T07:37:09;22.40;66.20
12413;DHT22;13877;18.896;-99.222;2023-06-04T07:39:36;22.50;66.50
12413;DHT22;13877;18.896;-99.222;2023-06-04T07:42:04;22.50;67.80
12413;DHT22;13877;18.896;-99.222;2023-06-04T07:44:34;22.40;66.60
12413;DHT22;13877;18.896;-99.222;2023-06-04T07:47:01;22.40;66.70
12413;DHT22;13877;18.896;-99.222;2023-06-04T07:49:28;22.40;65.50
12413;DHT22;13877;18.896;-99.222;2023-06-04T07:51:55;22.50;65.60
12413;DHT22;13877;18.896;-99.222;2023-06-04T07:54:22;22.40;65.40
12413;DHT22;13877;18.896;-99.222;2023-06-04T07:56:50;22.30;65.80
12413;DHT22;13877;18.896;-99.222;2023-06-04T07:59:23;22.30;65.70
12413;DHT22;13877;18.896;-99.222;2023-06-04T08:01:50;22.20;66.30
12413;DHT22;13877;18.896;-99.222;2023-06-04T08:04:21;22.20;65.70
12413;DHT22;13877;18.896;-99.222;2023-06-04T08:06:48;22.20;65.20
12413;DHT22;13877;18.896;-99.222;2023-06-04T08:09:16;22.20;66.10
12413;DHT22;13877;18.896;-99.222;2023-06-04T08:11:43;22.20;65.10
12413;DHT22;13877;18.896;-99.222;2023-06-04T08:14:11;22.20;64.60
12413;DHT22;13877;18.896;-99.222;2023-06-04T08:16:39;22.30;64.80
12413;DHT22;13877;18.896;-99.222;2023-06-04T08:19:09;22.20;64.80
12413;DHT22;13877;18.896;-99.222;2023-06-04T08:21:36;22.20;64.90
12413;DHT22;13877;18.896;-99.222;2023-06-04T08:24:04;22.20;64.70
12413;DHT22;13877;18.896;-99.222;2023-06-04T08:26:31;22.10;64.90
12413;DHT22;13877;18.896;-99.222;2023-06-04T08:29:02;22.00;64.30
12413;DHT22;13877;18.896;-99.222;2023-06-04T08:31:33;22.00;64.20
12413;DHT22;13877;18.896;-99.222;2023-06-04T08:34:00;22.10;64.40
12413;DHT22;13877;18.896;-99.222;2023-06-04T08:36:27;22.00;64.20
12413;DHT22;13877;18.896;-99.222;2023-06-04T08:38:59;22.00;64.20
12413;DHT22;13877;18.896;-99.222;2023-06-04T08:43:57;21.90;63.80
12413;DHT22;13877;18.896;-99.222;2023-06-04T08:46:24;21.90;63.70
12413;DHT22;13877;18.896;-99.222;2023-06-04T08:48:52;21.90;63.70
12413;DHT22;13877;18.896;-99.222;2023-06-04T08:51:22;22.00;63.80
12413;DHT22;13877;18.896;-99.222;2023-06-04T08:53:49;21.90;62.90
12413;DHT22;13877;18.896;-99.222;2023-06-04T08:56:22;21.90;63.20
12413;DHT22;13877;18.896;-99.222;2023-06-04T08:58:50;21.90;63.50
12413;DHT22;13877;18.896;-99.222;2023-06-04T09:01:17;22.00;64.30
12413;DHT22;13877;18.896;-99.222;2023-06-04T09:03:45;22.00;64.40
12413;DHT22;13877;18.896;-99.222;2023-06-04T09:06:12;22.10;63.20
12413;DHT22;13877;18.896;-99.222;2023-06-04T09:08:40;21.90;64.00
12413;DHT22;13877;18.896;-99.222;2023-06-04T09:11:10;21.80;64.70
12413;DHT22;13877;18.896;-99.222;2023-06-04T09:13:43;21.80;64.80
12413;DHT22;13877;18.896;-99.222;2023-06-04T09:16:13;21.80;65.20
12413;DHT22;13877;18.896;-99.222;2023-06-04T09:18:41;21.40;65.90
12413;DHT22;13877;18.896;-99.222;2023-06-04T09:21:09;21.30;67.30
12413;DHT22;13877;18.896;-99.222;2023-06-04T09:23:47;21.30;68.10
12413;DHT22;13877;18.896;-99.222;2023-06-04T09:26:14;21.40;67.60
12413;DHT22;13877;18.896;-99.222;2023-06-04T09:28:42;21.40;68.30
12413;DHT22;13877;18.896;-99.222;2023-06-04T09:31:14;21.20;69.10
12413;DHT22;13877;18.896;-99.222;2023-06-04T09:33:50;21.00;68.90
12413;DHT22;13877;18.896;-99.222;2023-06-04T09:36:17;20.80;67.20
12413;DHT22;13877;18.896;-99.222;2023-06-04T09:38:44;20.70;66.70
12413;DHT22;13877;18.896;-99.222;2023-06-04T09:41:16;20.60;65.40
12413;DHT22;13877;18.896;-99.222;2023-06-04T09:43:48;20.60;66.50
12413;DHT22;13877;18.896;-99.222;2023-06-04T09:46:17;20.80;66.80
12413;DHT22;13877;18.896;-99.222;2023-06-04T09:48:44;20.70;67.00
12413;DHT22;13877;18.896;-99.222;2023-06-04T09:51:13;20.60;67.40
12413;DHT22;13877;18.896;-99.222;2023-06-04T09:53:41;20.70;64.70
12413;DHT22;13877;18.896;-99.222;2023-06-04T09:56:08;21.00;63.30
12413;DHT22;13877;18.896;-99.222;2023-06-04T09:58:39;21.30;62.40
12413;DHT22;13877;18.896;-99.222;2023-06-04T10:01:07;21.50;62.20
12413;DHT22;13877;18.896;-99.222;2023-06-04T10:03:35;21.50;61.80
12413;DHT22;13877;18.896;-99.222;2023-06-04T10:06:06;21.70;62.70
12413;DHT22;13877;18.896;-99.222;2023-06-04T10:08:33;21.40;66.30
12413;DHT22;13877;18.896;-99.222;2023-06-04T10:11:02;21.00;68.10
12413;DHT22;13877;18.896;-99.222;2023-06-04T10:13:31;20.60;66.70
12413;DHT22;13877;18.896;-99.222;2023-06-04T10:16:02;20.60;64.30
12413;DHT22;13877;18.896;-99.222;2023-06-04T10:18:30;20.90;62.80
12413;DHT22;13877;18.896;-99.222;2023-06-04T10:20:58;21.10;62.20
12413;DHT22;13877;18.896;-99.222;2023-06-04T10:23:25;21.40;61.10
12413;DHT22;13877;18.896;-99.222;2023-06-04T10:25:53;21.50;60.80
12413;DHT22;13877;18.896;-99.222;2023-06-04T10:28:21;21.50;60.60
12413;DHT22;13877;18.896;-99.222;2023-06-04T10:30:49;21.50;61.20
12413;DHT22;13877;18.896;-99.222;2023-06-04T10:33:21;21.30;61.10
12413;DHT22;13877;18.896;-99.222;2023-06-04T10:35:54;21.00;61.80
12413;DHT22;13877;18.896;-99.222;2023-06-04T10:38:24;20.80;62.40
12413;DHT22;13877;18.896;-99.222;2023-06-04T10:40:52;20.70;61.80
12413;DHT22;13877;18.896;-99.222;2023-06-04T10:43:19;20.90;61.70
12413;DHT22;13877;18.896;-99.222;2023-06-04T10:45:46;21.00;60.90
12413;DHT22;13877;18.896;-99.222;2023-06-04T10:48:13;21.20;60.20
12413;DHT22;13877;18.896;-99.222;2023-06-04T10:50:51;21.30;60.20
12413;DHT22;13877;18.896;-99.222;2023-06-04T10:53:19;21.50;58.60
12413;DHT22;13877;18.896;-99.222;2023-06-04T10:55:50;21.70;58.40
12413;DHT22;13877;18.896;-99.222;2023-06-04T10:58:18;21.90;58.30
12413;DHT22;13877;18.896;-99.222;2023-06-04T11:00:47;22.00;57.10
12413;DHT22;13877;18.896;-99.222;2023-06-04T11:03:16;22.10;56.70
12413;DHT22;13877;18.896;-99.222;2023-06-04T11:05:45;22.20;57.10
12413;DHT22;13877;18.896;-99.222;2023-06-04T11:08:14;22.20;57.00
12413;DHT22;13877;18.896;-99.222;2023-06-04T11:10:45;22.20;56.50
12413;DHT22;13877;18.896;-99.222;2023-06-04T11:13:12;22.30;56.20
12413;DHT22;13877;18.896;-99.222;2023-06-04T11:18:06;22.40;55.60
12413;DHT22;13877;18.896;-99.222;2023-06-04T11:20:34;22.60;55.70
12413;DHT22;13877;18.896;-99.222;2023-06-04T11:23:03;22.40;55.70
12413;DHT22;13877;18.896;-99.222;2023-06-04T11:25:30;22.30;56.60
12413;DHT22;13877;18.896;-99.222;2023-06-04T11:28:00;22.20;56.10
12413;DHT22;13877;18.896;-99.222;2023-06-04T11:30:28;22.20;56.00
12413;DHT22;13877;18.896;-99.222;2023-06-04T11:33:05;22.20;55.70
12413;DHT22;13877;18.896;-99.222;2023-06-04T11:35:42;22.10;56.20
12413;DHT22;13877;18.896;-99.222;2023-06-04T11:38:10;22.10;55.90
12413;DHT22;13877;18.896;-99.222;2023-06-04T11:40:36;22.10;55.50
12413;DHT22;13877;18.896;-99.222;2023-06-04T11:43:04;22.20;55.40
12413;DHT22;13877;18.896;-99.222;2023-06-04T11:45:32;22.10;55.10
12413;DHT22;13877;18.896;-99.222;2023-06-04T11:47:59;22.20;55.10
12413;DHT22;13877;18.896;-99.222;2023-06-04T11:50:29;22.20;55.20
12413;DHT22;13877;18.896;-99.222;2023-06-04T11:52:56;22.20;55.30
12413;DHT22;13877;18.896;-99.222;2023-06-04T11:55:24;22.10;55.40
12413;DHT22;13877;18.896;-99.222;2023-06-04T11:57:52;22.10;55.30
12413;DHT22;13877;18.896;-99.222;2023-06-04T12:00:20;22.30;54.70
12413;DHT22;13877;18.896;-99.222;2023-06-04T12:02:53;22.30;54.60
12413;DHT22;13877;18.896;-99.222;2023-06-04T12:05:22;22.30;54.60
12413;DHT22;13877;18.896;-99.222;2023-06-04T12:07:52;22.50;54.10
12413;DHT22;13877;18.896;-99.222;2023-06-04T12:10:20;22.40;54.60
12413;DHT22;13877;18.896;-99.222;2023-06-04T12:12:53;22.30;54.50
12413;DHT22;13877;18.896;-99.222;2023-06-04T12:15:22;22.20;55.10
12413;DHT22;13877;18.896;-99.222;2023-06-04T12:17:50;22.10;55.00
12413;DHT22;13877;18.896;-99.222;2023-06-04T12:20:31;22.30;54.80
12413;DHT22;13877;18.896;-99.222;2023-06-04T12:22:58;22.30;54.80
12413;DHT22;13877;18.896;-99.222;2023-06-04T12:25:29;22.50;53.90
12413;DHT22;13877;18.896;-99.222;2023-06-04T12:27:56;22.60;53.70
12413;DHT22;13877;18.896;-99.222;2023-06-04T12:30:33;22.70;53.40
12413;DHT22;13877;18.896;-99.222;2023-06-04T12:33:01;22.70;54.00
12413;DHT22;13877;18.896;-99.222;2023-06-04T12:35:27;22.80;54.10
12413;DHT22;13877;18.896;-99.222;2023-06-04T12:37:56;22.80;53.70
12413;DHT22;13877;18.896;-99.222;2023-06-04T12:40:23;22.80;54.00
12413;DHT22;13877;18.896;-99.222;2023-06-04T12:42:53;22.90;54.00
12413;DHT22;13877;18.896;-99.222;2023-06-04T12:45:20;22.90;54.20
12413;DHT22;13877;18.896;-99.222;2023-06-04T12:47:47;23.00;53.60
12413;DHT22;13877;18.896;-99.222;2023-06-04T12:50:13;23.10;54.40
12413;DHT22;13877;18.896;-99.222;2023-06-04T12:52:40;23.10;54.00
12413;DHT22;13877;18.896;-99.222;2023-06-04T12:55:08;23.20;54.00
12413;DHT22;13877;18.896;-99.222;2023-06-04T12:57:36;23.30;53.70
12413;DHT22;13877;18.896;-99.222;2023-06-04T13:00:05;23.50;54.10
12413;DHT22;13877;18.896;-99.222;2023-06-04T13:02:33;23.60;53.40
12413;DHT22;13877;18.896;-99.222;2023-06-04T13:05:00;23.80;54.00
12413;DHT22;13877;18.896;-99.222;2023-06-04T13:07:27;23.90;54.00
12413;DHT22;13877;18.896;-99.222;2023-06-04T13:09:54;24.00;55.70
12413;DHT22;13877;18.896;-99.222;2023-06-04T13:12:21;24.00;54.50
12413;DHT22;13877;18.896;-99.222;2023-06-04T13:14:47;24.20;58.60
12413;DHT22;13877;18.896;-99.222;2023-06-04T13:17:14;24.10;60.90
12413;DHT22;13877;18.896;-99.222;2023-06-04T13:19:42;23.90;61.50
12413;DHT22;13877;18.896;-99.222;2023-06-04T13:22:11;23.90;60.30
12413;DHT22;13877;18.896;-99.222;2023-06-04T13:24:38;23.90;60.50
12413;DHT22;13877;18.896;-99.222;2023-06-04T13:27:05;23.90;60.90
12413;DHT22;13877;18.896;-99.222;2023-06-04T13:29:33;24.20;62.00
12413;DHT22;13877;18.896;-99.222;2023-06-04T13:32:00;24.40;60.80
12413;DHT22;13877;18.896;-99.222;2023-06-04T13:34:27;24.40;59.90
12413;DHT22;13877;18.896;-99.222;2023-06-04T13:36:55;24.60;57.80
12413;DHT22;13877;18.896;-99.222;2023-06-04T13:39:23;24.60;58.10
12413;DHT22;13877;18.896;-99.222;2023-06-04T13:41:50;24.80;58.50
12413;DHT22;13877;18.896;-99.222;2023-06-04T13:44:17;25.00;59.90
12413;DHT22;13877;18.896;-99.222;2023-06-04T13:46:45;25.20;59.20
12413;DHT22;13877;18.896;-99.222;2023-06-04T13:49:12;25.40;58.90
12413;DHT22;13877;18.896;-99.222;2023-06-04T13:51:39;25.40;58.30
12413;DHT22;13877;18.896;-99.222;2023-06-04T13:54:06;25.40;59.90
12413;DHT22;13877;18.896;-99.222;2023-06-04T13:56:34;25.20;59.10
12413;DHT22;13877;18.896;-99.222;2023-06-04T13:59:02;25.30;59.20
12413;DHT22;13877;18.896;-99.222;2023-06-04T14:01:29;25.60;61.40
12413;DHT22;13877;18.896;-99.222;2023-06-04T14:03:56;25.80;57.70
12413;DHT22;13877;18.896;-99.222;2023-06-04T14:06:24;26.20;57.30
12413;DHT22;13877;18.896;-99.222;2023-06-04T14:08:51;26.50;57.70
12413;DHT22;13877;18.896;-99.222;2023-06-04T14:11:18;26.40;57.80
12413;DHT22;13877;18.896;-99.222;2023-06-04T14:13:45;26.60;57.60
12413;DHT22;13877;18.896;-99.222;2023-06-04T14:16:12;26.30;56.70
12413;DHT22;13877;18.896;-99.222;2023-06-04T14:18:39;26.80;57.10
12413;DHT22;13877;18.896;-99.222;2023-06-04T14:21:06;27.20;55.40
12413;DHT22;13877;18.896;-99.222;2023-06-04T14:23:34;27.50;54.40
12413;DHT22;13877;18.896;-99.222;2023-06-04T14:26:01;27.50;54.30
12413;DHT22;13877;18.896;-99.222;2023-06-04T14:28:29;27.40;56.30
12413;DHT22;13877;18.896;-99.222;2023-06-04T14:30:57;27.40;53.40
12413;DHT22;13877;18.896;-99.222;2023-06-04T14:33:24;27.50;53.50
12413;DHT22;13877;18.896;-99.222;2023-06-04T14:35:51;27.40;54.10
12413;DHT22;13877;18.896;-99.222;2023-06-04T14:38:18;27.60;55.10
12413;DHT22;13877;18.896;-99.222;2023-06-04T14:40:45;27.80;55.80
12413;DHT22;13877;18.896;-99.222;2023-06-04T14:43:12;28.10;51.50
12413;DHT22;13877;18.896;-99.222;2023-06-04T14:45:39;28.30;51.60
12413;DHT22;13877;18.896;-99.222;2023-06-04T14:48:09;27.80;52.60
12413;DHT22;13877;18.896;-99.222;2023-06-04T14:50:36;28.00;53.30
12413;DHT22;13877;18.896;-99.222;2023-06-04T15:31:00;29.80;49.70
12413;DHT22;13877;18.896;-99.222;2023-06-04T15:33:27;29.70;48.90
12413;DHT22;13877;18.896;-99.222;2023-06-04T15:35:54;29.90;49.30
12413;DHT22;13877;18.896;-99.222;2023-06-04T15:38:21;30.00;50.00
12413;DHT22;13877;18.896;-99.222;2023-06-04T15:40:48;30.00;50.20
12413;DHT22;13877;18.896;-99.222;2023-06-04T15:43:15;30.00;46.90
12413;DHT22;13877;18.896;-99.222;2023-06-04T15:45:42;30.10;48.30
12413;DHT22;13877;18.896;-99.222;2023-06-04T15:48:11;30.10;46.90
12413;DHT22;13877;18.896;-99.222;2023-06-04T15:50:38;29.90;47.30
12413;DHT22;13877;18.896;-99.222;2023-06-04T15:53:05;30.30;48.00
12413;DHT22;13877;18.896;-99.222;2023-06-04T15:55:32;30.30;45.50
12413;DHT22;13877;18.896;-99.222;2023-06-04T15:57:59;30.70;45.00
12413;DHT22;13877;18.896;-99.222;2023-06-04T16:00:26;30.20;45.80